Time,TemperatureF,DewpointF,PressureIn,WindDirection,WindDirectionDegrees,WindSpeedMPH,WindSpeedGustMPH,Humidity,HourlyPrecipIn,Conditions,Clouds,dailyrainin,SoftwareType,DateUTC
2017-05-25 00:05:00,50.1,45.8,29.75,East,79,0.0,0.0,85,0.00,,,0.00,Wunderground v.1.15,2017-05-25 05:05:00,
2017-05-25 00:10:00,50.2,45.9,29.75,East,79,0.0,0.0,85,0.00,,,0.00,Wunderground v.1.15,2017-05-25 05:10:00,
2017-05-25 00:19:00,49.9,45.6,29.75,East,80,0.0,0.0,85,0.00,,,0.00,Wunderground v.1.15,2017-05-25 05:19:00,
2017-05-25 00:24:00,49.9,45.9,29.75,East,79,0.0,0.0,86,0.00,,,0.00,Wunderground v.1.15,2017-05-25 05:24:00,
2017-05-25 00:29:00,49.8,45.8,29.75,East,79,0.0,0.0,86,0.00,,,0.00,Wunderground v.1.15,2017-05-25 05:29:00,
2017-05-25 00:35:00,49.5,45.5,29.75,East,79,0.0,0.0,86,0.00,,,0.00,Wunderground v.1.15,2017-05-25 05:35:00,
2017-05-25 00:40:00,49.1,45.4,29.75,East,79,0.0,0.0,87,0.00,,,0.00,Wunderground v.1.15,2017-05-25 05:40:00,
2017-05-25 00:45:00,49.0,45.3,29.75,East,79,0.0,0.0,87,0.00,,,0.00,Wunderground v.1.15,2017-05-25 05:45:00,
2017-05-25 00:54:00,48.7,45.0,29.75,East,80,0.0,0.0,87,0.00,,,0.00,Wunderground v.1.15,2017-05-25 05:54:00,
2017-05-25 01:00:00,48.6,44.9,29.75,East,79,0.0,0.0,87,0.00,,,0.00,Wunderground v.1.15,2017-05-25 06:00:00,
2017-05-25 01:05:00,48.3,44.6,29.75,East,79,0.0,0.0,87,0.00,,,0.00,Wunderground v.1.15,2017-05-25 06:05:00,
2017-05-25 01:14:00,47.9,44.8,29.75,East,79,0.0,0.0,89,0.00,,,0.00,Wunderground v.1.15,2017-05-25 06:14:00,
2017-05-25 01:20:00,47.7,44.6,29.75,East,79,0.0,0.0,89,0.00,,,0.00,Wunderground v.1.15,2017-05-25 06:20:00,
2017-05-25 01:25:00,47.6,44.5,29.75,East,80,0.0,0.0,89,0.00,,,0.00,Wunderground v.1.15,2017-05-25 06:25:00,
2017-05-25 01:35:00,47.4,44.6,29.74,East,79,0.0,0.0,90,0.00,,,0.00,Wunderground v.1.15,2017-05-25 06:35:00,
2017-05-25 01:44:00,47.2,44.4,29.74,East,79,0.0,0.0,90,0.00,,,0.00,Wunderground v.1.15,2017-05-25 06:44:00,
2017-05-25 01:49:00,47.2,44.4,29.74,East,79,0.0,0.0,90,0.00,,,0.00,Wunderground v.1.15,2017-05-25 06:49:00,
2017-05-25 01:54:00,47.2,44.4,29.73,East,79,0.0,0.0,90,0.00,,,0.00,Wunderground v.1.15,2017-05-25 06:54:00,
2017-05-25 02:00:00,47.0,44.2,29.73,East,79,0.0,0.0,90,0.00,,,0.00,Wunderground v.1.15,2017-05-25 07:00:00,
2017-05-25 02:05:00,46.9,44.1,29.74,East,79,0.0,0.0,90,0.00,,,0.00,Wunderground v.1.15,2017-05-25 07:05:00,
2017-05-25 02:15:00,46.9,44.4,29.73,East,79,0.0,0.0,91,0.00,,,0.00,Wunderground v.1.15,2017-05-25 07:15:00,
2017-05-25 02:20:00,46.8,44.0,29.74,East,79,0.0,0.0,90,0.00,,,0.00,Wunderground v.1.15,2017-05-25 07:20:00,
2017-05-25 02:30:00,46.7,44.2,29.73,East,79,0.0,0.0,91,0.00,,,0.00,Wunderground v.1.15,2017-05-25 07:30:00,
2017-05-25 02:39:00,47.4,44.9,29.74,East,79,0.0,0.0,91,0.00,,,0.00,Wunderground v.1.15,2017-05-25 07:39:00,
2017-05-25 02:44:00,47.6,44.8,29.73,East,79,0.0,1.0,90,0.00,,,0.00,Wunderground v.1.15,2017-05-25 07:44:00,
2017-05-25 02:49:00,47.8,45.0,29.73,East,79,1.0,3.0,90,0.00,,,0.00,Wunderground v.1.15,2017-05-25 07:49:00,
2017-05-25 02:55:00,48.3,45.5,29.73,East,79,2.0,3.0,90,0.00,,,0.00,Wunderground v.1.15,2017-05-25 07:55:00,
2017-05-25 03:00:00,48.5,45.4,29.72,East,79,2.0,2.0,89,0.00,,,0.00,Wunderground v.1.15,2017-05-25 08:00:00,
2017-05-25 03:05:00,48.7,45.3,29.72,East,79,1.0,2.0,88,0.00,,,0.00,Wunderground v.1.15,2017-05-25 08:05:00,
2017-05-25 03:15:00,49.0,45.3,29.72,East,79,1.0,2.0,87,0.00,,,0.00,Wunderground v.1.15,2017-05-25 08:15:00,
2017-05-25 03:24:00,49.1,45.4,29.72,East,80,1.0,1.0,87,0.00,,,0.00,Wunderground v.1.15,2017-05-25 08:24:00,
2017-05-25 03:30:00,49.0,45.3,29.72,East,79,1.0,1.0,87,0.00,,,0.00,Wunderground v.1.15,2017-05-25 08:30:00,
2017-05-25 03:35:00,48.9,45.2,29.73,East,79,0.0,1.0,87,0.00,,,0.00,Wunderground v.1.15,2017-05-25 08:35:00,
2017-05-25 03:44:00,48.7,45.3,29.72,East,79,0.0,0.0,88,0.00,,,0.00,Wunderground v.1.15,2017-05-25 08:44:00,
2017-05-25 03:49:00,48.6,45.2,29.73,East,79,0.0,0.0,88,0.00,,,0.00,Wunderground v.1.15,2017-05-25 08:49:00,
2017-05-25 03:54:00,48.4,45.0,29.73,East,79,1.0,1.0,88,0.00,,,0.00,Wunderground v.1.15,2017-05-25 08:54:00,
2017-05-25 04:00:00,48.2,45.1,29.73,East,79,0.0,1.0,89,0.00,,,0.00,Wunderground v.1.15,2017-05-25 09:00:00,
2017-05-25 04:05:00,48.1,45.0,29.73,East,79,1.0,1.0,89,0.00,,,0.00,Wunderground v.1.15,2017-05-25 09:05:00,
2017-05-25 04:14:00,48.3,45.2,29.73,East,79,0.0,0.0,89,0.00,,,0.00,Wunderground v.1.15,2017-05-25 09:14:00,
2017-05-25 04:19:00,48.3,45.2,29.74,East,79,0.0,0.0,89,0.00,,,0.00,Wunderground v.1.15,2017-05-25 09:19:00,
2017-05-25 04:24:00,48.4,45.3,29.73,East,79,0.0,0.0,89,0.00,,,0.00,Wunderground v.1.15,2017-05-25 09:24:00,
2017-05-25 04:30:00,48.3,45.2,29.73,East,79,0.0,2.0,89,0.00,,,0.00,Wunderground v.1.15,2017-05-25 09:30:00,
2017-05-25 04:35:00,48.5,45.4,29.73,East,79,1.0,2.0,89,0.00,,,0.00,Wunderground v.1.15,2017-05-25 09:35:00,
2017-05-25 04:44:00,48.5,45.4,29.73,East,79,1.0,2.0,89,0.00,,,0.00,Wunderground v.1.15,2017-05-25 09:44:00,
2017-05-25 04:49:00,48.5,45.4,29.73,East,83,1.0,1.0,89,0.00,,,0.00,Wunderground v.1.15,2017-05-25 09:49:00,
2017-05-25 04:54:00,48.3,45.2,29.73,East,83,1.0,1.0,89,0.00,,,0.00,Wunderground v.1.15,2017-05-25 09:54:00,
2017-05-25 05:00:00,48.4,45.3,29.73,East,83,1.0,2.0,89,0.00,,,0.00,Wunderground v.1.15,2017-05-25 10:00:00,
2017-05-25 05:05:00,48.2,45.1,29.73,East,83,1.0,2.0,89,0.00,,,0.00,Wunderground v.1.15,2017-05-25 10:05:00,